createdAt,value
2018-06-04T00:01:12.363Z,19.96
2018-06-04T00:03:41.926Z,19.97
2018-06-04T00:06:10.664Z,20.00
2018-06-04T00:08:39.431Z,20.01
2018-06-04T00:11:08.283Z,20.06
2018-06-04T00:13:37.044Z,19.99
2018-06-04T00:16:05.853Z,19.91
2018-06-04T00:18:34.592Z,19.84
2018-06-04T00:21:03.339Z,19.81
2018-06-04T00:23:32.072Z,19.79
2018-06-04T00:26:00.835Z,19.81
2018-06-04T00:28:29.644Z,19.84
2018-06-04T00:30:58.407Z,19.84
2018-06-04T00:33:27.567Z,19.82
2018-06-04T00:35:56.311Z,19.71
2018-06-04T00:38:25.124Z,19.73
2018-06-04T00:40:54.058Z,19.72
2018-06-04T00:43:22.906Z,19.75
2018-06-04T00:45:51.707Z,19.75
2018-06-04T00:48:20.459Z,19.77
2018-06-04T00:50:49.247Z,19.77
2018-06-04T00:53:18.023Z,19.70
2018-06-04T00:55:57.983Z,19.61
2018-06-04T00:58:26.722Z,19.57
2018-06-04T01:00:55.553Z,19.51
2018-06-04T01:03:24.323Z,19.38
2018-06-04T01:05:53.104Z,19.38
2018-06-04T01:08:21.855Z,19.37
2018-06-04T01:10:50.620Z,19.36
2018-06-04T01:13:19.363Z,19.39
2018-06-04T01:15:48.217Z,19.40
2018-06-04T01:18:16.963Z,19.39
2018-06-04T01:20:45.773Z,19.40
2018-06-04T01:23:14.520Z,19.42
2018-06-04T01:25:43.297Z,19.41
2018-06-04T01:28:12.048Z,19.37
2018-06-04T01:30:40.824Z,19.39
2018-06-04T01:33:09.565Z,19.42
2018-06-04T01:35:38.305Z,19.46
2018-06-04T01:38:07.079Z,19.47
2018-06-04T01:40:35.878Z,19.49
2018-06-04T01:43:04.623Z,19.50
2018-06-04T01:45:33.447Z,19.50
2018-06-04T01:48:02.281Z,19.44
2018-06-04T01:50:31.084Z,19.43
2018-06-04T01:52:59.831Z,19.45
2018-06-04T01:55:28.575Z,19.42
2018-06-04T01:57:57.352Z,19.41
2018-06-04T02:00:26.145Z,19.39
2018-06-04T02:02:54.871Z,19.37
2018-06-04T02:05:23.610Z,19.32
2018-06-04T02:07:52.374Z,19.27
2018-06-04T02:10:21.119Z,19.23
2018-06-04T02:12:49.930Z,19.20
2018-06-04T02:15:18.697Z,19.09
2018-06-04T02:17:47.453Z,19.08
2018-06-04T02:20:16.215Z,19.01
2018-06-04T02:22:44.972Z,18.98
2018-06-04T02:25:13.745Z,18.99
2018-06-04T02:27:42.531Z,18.98
2018-06-04T02:30:11.396Z,19.03
2018-06-04T02:32:40.163Z,19.08
2018-06-04T02:35:08.969Z,19.07
2018-06-04T02:37:37.768Z,19.03
2018-06-04T02:40:06.824Z,19.06
2018-06-04T02:42:35.556Z,19.04
2018-06-04T02:45:04.447Z,19.00
2018-06-04T02:47:34.180Z,18.99
2018-06-04T02:50:03.058Z,18.94
2018-06-04T02:52:31.879Z,18.95
2018-06-04T02:55:00.651Z,18.88
2018-06-04T02:57:35.887Z,18.86
2018-06-04T03:00:06.439Z,18.80
2018-06-04T03:02:35.147Z,18.75
2018-06-04T03:05:04.003Z,18.68
2018-06-04T03:07:32.758Z,18.64
2018-06-04T03:10:01.605Z,18.56
2018-06-04T03:12:30.981Z,18.46
2018-06-04T03:14:59.747Z,18.39
2018-06-04T03:17:28.519Z,18.28
2018-06-04T03:19:57.638Z,18.28
2018-06-04T03:22:26.622Z,18.28
2018-06-04T03:24:55.383Z,18.36
2018-06-04T03:27:24.214Z,18.40
2018-06-04T03:29:53.035Z,18.47
2018-06-04T03:32:21.783Z,18.49
2018-06-04T03:34:50.926Z,18.51
2018-06-04T03:37:19.857Z,18.51
2018-06-04T03:39:48.689Z,18.42
2018-06-04T03:42:17.531Z,18.44
2018-06-04T03:44:46.508Z,18.43
2018-06-04T03:47:15.404Z,18.51
2018-06-04T03:49:44.620Z,18.50
2018-06-04T03:52:13.392Z,18.47
2018-06-04T03:54:42.228Z,18.48
2018-06-04T03:57:11.403Z,18.50
2018-06-04T03:59:40.231Z,18.56
2018-06-04T04:02:09.013Z,18.61
2018-06-04T04:04:37.782Z,18.73
2018-06-04T04:07:06.564Z,18.82
2018-06-04T04:09:35.373Z,18.93
2018-06-04T04:12:04.213Z,18.96
2018-06-04T04:14:32.954Z,19.08
2018-06-04T04:17:01.743Z,19.19
2018-06-04T04:19:30.827Z,19.22
2018-06-04T04:21:59.650Z,19.23
2018-06-04T04:24:28.416Z,19.23
2018-06-04T04:26:57.169Z,19.31
2018-06-04T04:29:26.261Z,19.42
2018-06-04T04:31:55.036Z,19.48
2018-06-04T04:34:23.862Z,19.59
2018-06-04T04:36:52.684Z,19.63
2018-06-04T04:39:21.511Z,19.70
2018-06-04T04:41:50.282Z,19.72
2018-06-04T04:44:19.119Z,19.89
2018-06-04T04:46:47.878Z,20.22
2018-06-04T04:49:16.670Z,20.86
2018-06-04T04:51:45.471Z,21.70
2018-06-04T04:54:14.382Z,22.50
2018-06-04T04:56:43.278Z,23.34
2018-06-04T04:59:12.126Z,24.22
2018-06-04T05:01:40.858Z,24.48
2018-06-04T05:04:09.618Z,25.13
2018-06-04T05:06:38.411Z,25.61
2018-06-04T05:09:08.921Z,25.83
2018-06-04T05:11:37.708Z,25.71
2018-06-04T05:14:06.497Z,25.95
2018-06-04T05:16:35.281Z,25.62
2018-06-04T05:19:04.044Z,25.59
2018-06-04T05:21:32.825Z,25.11
2018-06-04T05:24:01.660Z,25.54
2018-06-04T05:26:30.480Z,25.50
2018-06-04T05:28:59.416Z,25.64
2018-06-04T05:31:28.251Z,26.09
2018-06-04T05:33:56.975Z,25.62
2018-06-04T05:36:25.727Z,25.11
2018-06-04T05:38:54.579Z,24.73
2018-06-04T05:41:23.329Z,24.63
2018-06-04T05:43:52.111Z,24.47
2018-06-04T05:46:20.874Z,24.31
2018-06-04T05:48:49.685Z,24.71
2018-06-04T05:51:18.462Z,25.00
2018-06-04T05:53:47.210Z,25.40
2018-06-04T05:56:15.991Z,25.40
2018-06-04T05:58:44.946Z,25.13
2018-06-04T06:01:13.912Z,24.61
2018-06-04T06:03:42.677Z,24.47
2018-06-04T06:06:11.504Z,24.28
2018-06-04T06:08:40.278Z,24.13
2018-06-04T06:11:09.067Z,23.96
2018-06-04T06:13:37.896Z,23.99
2018-06-04T06:16:06.688Z,23.91
2018-06-04T06:18:35.553Z,23.50
2018-06-04T06:21:04.315Z,23.27
2018-06-04T06:23:33.103Z,23.20
2018-06-04T06:26:01.859Z,23.23
2018-06-04T06:28:30.655Z,23.21
2018-06-04T06:30:59.488Z,23.59
2018-06-04T06:33:28.266Z,23.65
2018-06-04T06:35:57.043Z,23.56
2018-06-04T06:38:25.854Z,23.62
2018-06-04T06:40:54.659Z,23.59
2018-06-04T06:43:23.510Z,23.66
2018-06-04T06:45:52.317Z,23.68
2018-06-04T06:48:21.139Z,23.59
2018-06-04T06:50:49.900Z,23.59
2018-06-04T06:53:18.787Z,23.55
2018-06-04T06:55:47.599Z,23.52
2018-06-04T06:58:16.432Z,23.49
2018-06-04T07:00:45.213Z,23.45
2018-06-04T07:03:14.644Z,23.39
2018-06-04T07:05:43.440Z,23.49
2018-06-04T07:08:13.163Z,23.45
2018-06-04T07:10:41.930Z,23.50
2018-06-04T07:13:10.700Z,23.55
2018-06-04T07:15:39.460Z,23.49
2018-06-04T07:18:08.227Z,23.55
2018-06-04T07:20:37.520Z,23.56
2018-06-04T07:23:06.369Z,23.51
2018-06-04T07:25:35.258Z,23.56
2018-06-04T07:28:04.028Z,23.67
2018-06-04T07:30:32.976Z,23.59
2018-06-04T07:33:01.799Z,23.52
2018-06-04T07:35:30.586Z,23.54
2018-06-04T07:37:59.482Z,23.73
2018-06-04T07:40:28.246Z,23.73
2018-06-04T07:42:57.091Z,23.92
2018-06-04T07:45:25.852Z,24.12
2018-06-04T07:47:54.634Z,24.12
2018-06-04T07:50:23.459Z,24.16
2018-06-04T07:52:52.252Z,24.36
2018-06-04T07:55:21.164Z,24.21
2018-06-04T07:57:49.930Z,24.25
2018-06-04T08:00:18.740Z,24.20
2018-06-04T08:02:47.482Z,24.30
2018-06-04T08:05:16.409Z,24.35
2018-06-04T08:07:45.197Z,24.26
2018-06-04T08:10:13.945Z,24.33
2018-06-04T08:12:42.704Z,24.36
2018-06-04T08:15:11.433Z,24.53
2018-06-04T08:17:40.229Z,24.65
2018-06-04T08:20:09.040Z,24.62
2018-06-04T08:22:37.858Z,24.56
2018-06-04T08:25:06.614Z,24.62
2018-06-04T08:27:35.367Z,24.88
2018-06-04T08:30:05.178Z,25.06
2018-06-04T08:32:33.940Z,25.07
2018-06-04T08:35:02.743Z,25.13
2018-06-04T08:37:31.560Z,24.99
2018-06-04T08:40:00.328Z,25.01
2018-06-04T08:42:29.087Z,24.92
2018-06-04T08:44:57.874Z,24.97
2018-06-04T08:47:26.735Z,24.67
2018-06-04T08:49:55.530Z,24.83
2018-06-04T08:52:24.282Z,25.10
2018-06-04T08:54:53.124Z,25.48
2018-06-04T08:57:21.907Z,25.42
2018-06-04T08:59:50.682Z,25.39
2018-06-04T09:02:19.407Z,25.61
2018-06-04T09:04:48.172Z,25.66
2018-06-04T09:07:17.064Z,25.72
2018-06-04T09:09:45.814Z,25.73
2018-06-04T09:12:14.781Z,25.71
2018-06-04T09:14:43.544Z,25.72
2018-06-04T09:17:12.355Z,25.84
2018-06-04T09:19:41.141Z,25.69
2018-06-04T09:22:09.958Z,25.56
2018-06-04T09:24:38.853Z,25.77
2018-06-04T09:27:07.879Z,25.94
2018-06-04T09:29:36.667Z,26.16
2018-06-04T09:32:05.470Z,26.24
2018-06-04T09:34:34.375Z,26.14
2018-06-04T09:37:03.175Z,26.17
2018-06-04T09:39:31.895Z,26.13
2018-06-04T09:42:00.656Z,26.24
2018-06-04T09:44:29.597Z,26.21
2018-06-04T09:46:58.407Z,26.05
2018-06-04T09:49:27.179Z,25.95
2018-06-04T09:51:55.955Z,25.90
2018-06-04T09:54:24.730Z,25.91
2018-06-04T09:56:53.492Z,25.88
2018-06-04T09:59:22.294Z,26.03
2018-06-04T10:01:51.077Z,25.98
2018-06-04T10:04:19.915Z,25.76
2018-06-04T10:06:48.717Z,25.79
2018-06-04T10:09:17.514Z,25.87
2018-06-04T10:11:46.295Z,25.84
2018-06-04T10:14:15.084Z,25.83
2018-06-04T10:16:43.855Z,25.83
2018-06-04T10:19:12.640Z,25.82
2018-06-04T10:21:41.531Z,25.92
2018-06-04T10:24:10.438Z,25.86
2018-06-04T10:26:39.260Z,25.51
2018-06-04T10:29:09.047Z,25.45
2018-06-04T10:31:37.857Z,25.34
2018-06-04T10:34:06.662Z,25.28
2018-06-04T10:36:36.530Z,25.34
2018-06-04T10:39:07.534Z,25.41
2018-06-04T10:41:37.962Z,24.96
2018-06-04T10:44:06.726Z,24.67
2018-06-04T10:46:35.504Z,24.75
2018-06-04T10:49:04.282Z,24.48
2018-06-04T10:51:33.003Z,24.21
2018-06-04T10:54:01.806Z,24.33
2018-06-04T10:56:30.528Z,24.52
2018-06-04T10:59:00.323Z,24.50
2018-06-04T11:01:29.031Z,24.58
2018-06-04T11:03:57.908Z,24.75
2018-06-04T11:06:26.650Z,24.65
2018-06-04T11:08:55.703Z,24.88
2018-06-04T11:11:24.467Z,24.96
2018-06-04T11:13:53.231Z,25.13
2018-06-04T11:16:22.041Z,25.04
2018-06-04T11:18:50.919Z,25.10
2018-06-04T11:21:20.025Z,25.14
2018-06-04T11:23:48.781Z,25.28
2018-06-04T11:26:17.782Z,25.37
2018-06-04T11:28:46.573Z,25.10
2018-06-04T11:31:15.358Z,25.27
2018-06-04T11:33:44.044Z,25.47
2018-06-04T11:36:12.785Z,25.57
2018-06-04T11:38:41.684Z,25.54
2018-06-04T11:41:10.456Z,25.62
2018-06-04T11:43:39.194Z,25.68
2018-06-04T11:46:08.157Z,25.79
2018-06-04T11:48:36.896Z,25.63
2018-06-04T11:51:05.657Z,25.62
2018-06-04T11:53:41.045Z,25.74
2018-06-04T11:56:09.790Z,25.83
2018-06-04T11:58:38.548Z,25.94
2018-06-04T12:01:07.465Z,26.10
2018-06-04T12:03:36.248Z,26.13
2018-06-04T12:06:04.976Z,26.19
2018-06-04T12:08:33.835Z,26.05
